DEHEC EDWY-EDDH
Flight info
| Callsign | DEHEC |
|---|---|
| Flight time | 1h 0m |
| Altitude | 9000 |
| Route | EDWY EDDH |
| Aircraft | DA42/L-SBDGRY/S |
Departure
| Time | 2026-04-20 18:34 |
|---|---|
| Airport | Norderney Airport (EDWY) |
Arrival
| Time | 2026-04-20 19:34 |
|---|---|
| Airport | Hamburg Helmut Schmidt Airport (EDDH) |
| Time | Latitude | Longitude | Altitude | Speed | Heading |
|---|---|---|---|---|---|
| 2026-04-20 18:24 | 53.70761 | 7.22944 | 0 ft | 0 kts | 175° |
| 2026-04-20 18:32 | 53.70754 | 7.22943 | 0 ft | 4 kts | 201° |
| 2026-04-20 18:32 | 53.70725 | 7.22906 | 2 ft | 7 kts | 218° |
| 2026-04-20 18:32 | 53.70693 | 7.22892 | 3 ft | 4 kts | 146° |
| 2026-04-20 18:33 | 53.70690 | 7.22981 | 2 ft | 13 kts | 87° |
| 2026-04-20 18:33 | 53.70704 | 7.23284 | 3 ft | 49 kts | 85° |
| 2026-04-20 18:33 | 53.70728 | 7.24017 | 145 ft | 67 kts | 80° |
| 2026-04-20 18:33 | 53.70796 | 7.24784 | 309 ft | 63 kts | 71° |
| 2026-04-20 18:34 | 53.70895 | 7.25470 | 430 ft | 59 kts | 71° |
| 2026-04-20 18:34 | 53.70987 | 7.26154 | 507 ft | 61 kts | 66° |
| 2026-04-20 18:34 | 53.70731 | 7.26750 | 577 ft | 94 kts | 144° |
| 2026-04-20 18:34 | 53.70098 | 7.27061 | 674 ft | 92 kts | 144° |
| 2026-04-20 18:35 | 53.69581 | 7.27574 | 730 ft | 79 kts | 112° |
| 2026-04-20 18:35 | 53.69298 | 7.28295 | 839 ft | 72 kts | 97° |
| 2026-04-20 18:35 | 53.68971 | 7.29028 | 854 ft | 90 kts | 129° |
| 2026-04-20 18:35 | 53.68611 | 7.29797 | 867 ft | 85 kts | 107° |
| 2026-04-20 18:36 | 53.68274 | 7.30658 | 863 ft | 90 kts | 109° |
| 2026-04-20 18:36 | 53.67934 | 7.31539 | 935 ft | 85 kts | 109° |
| 2026-04-20 18:36 | 53.67618 | 7.32334 | 1061 ft | 79 kts | 109° |
| 2026-04-20 18:36 | 53.67310 | 7.33086 | 1181 ft | 77 kts | 109° |
| 2026-04-20 18:37 | 53.67008 | 7.33810 | 1293 ft | 76 kts | 109° |
| 2026-04-20 18:37 | 53.66704 | 7.34531 | 1432 ft | 75 kts | 109° |
| 2026-04-20 18:37 | 53.66401 | 7.35245 | 1587 ft | 74 kts | 109° |
| 2026-04-20 18:37 | 53.66097 | 7.35950 | 1724 ft | 74 kts | 109° |
| 2026-04-20 18:38 | 53.65897 | 7.36418 | 1843 ft | 74 kts | 109° |
| 2026-04-20 18:38 | 53.65714 | 7.37143 | 2050 ft | 62 kts | 66° |
| 2026-04-20 18:38 | 53.65897 | 7.37767 | 2194 ft | 64 kts | 83° |
| 2026-04-20 18:38 | 53.65932 | 7.38529 | 2340 ft | 64 kts | 78° |
| 2026-04-20 18:39 | 53.65973 | 7.39250 | 2420 ft | 60 kts | 78° |
| 2026-04-20 18:39 | 53.65997 | 7.39938 | 2507 ft | 59 kts | 80° |
| 2026-04-20 18:39 | 53.66015 | 7.40628 | 2573 ft | 58 kts | 82° |
| 2026-04-20 18:39 | 53.66034 | 7.41350 | 2607 ft | 65 kts | 83° |
| 2026-04-20 18:40 | 53.66051 | 7.42307 | 2616 ft | 98 kts | 85° |
| 2026-04-20 18:40 | 53.66061 | 7.43548 | 2612 ft | 109 kts | 86° |
| 2026-04-20 18:40 | 53.66068 | 7.44838 | 2603 ft | 111 kts | 86° |
| 2026-04-20 18:40 | 53.66085 | 7.46158 | 2597 ft | 114 kts | 86° |
| 2026-04-20 18:41 | 53.66081 | 7.47508 | 2601 ft | 116 kts | 87° |
| 2026-04-20 18:41 | 53.66087 | 7.48834 | 2588 ft | 113 kts | 85° |
| 2026-04-20 18:41 | 53.66100 | 7.50146 | 2584 ft | 113 kts | 85° |
| 2026-04-20 18:41 | 53.66102 | 7.51481 | 2593 ft | 113 kts | 85° |
| 2026-04-20 18:42 | 53.66107 | 7.52813 | 2590 ft | 113 kts | 85° |
| 2026-04-20 18:42 | 53.66114 | 7.54123 | 2582 ft | 111 kts | 86° |
| 2026-04-20 18:42 | 53.66121 | 7.55412 | 2580 ft | 112 kts | 86° |
| 2026-04-20 18:42 | 53.66126 | 7.56718 | 2580 ft | 111 kts | 86° |
| 2026-04-20 18:43 | 53.66131 | 7.58015 | 2577 ft | 111 kts | 86° |
| 2026-04-20 18:43 | 53.66138 | 7.59335 | 2593 ft | 115 kts | 86° |
| 2026-04-20 18:43 | 53.66144 | 7.60677 | 2580 ft | 113 kts | 86° |
| 2026-04-20 18:43 | 53.66146 | 7.61999 | 2579 ft | 114 kts | 86° |
| 2026-04-20 18:44 | 53.66154 | 7.63351 | 2601 ft | 117 kts | 87° |
| 2026-04-20 18:44 | 53.66153 | 7.64729 | 2583 ft | 119 kts | 86° |
| 2026-04-20 18:44 | 53.66156 | 7.66138 | 2587 ft | 120 kts | 86° |
| 2026-04-20 18:44 | 53.66168 | 7.67554 | 2582 ft | 121 kts | 86° |
| 2026-04-20 18:45 | 53.66172 | 7.68951 | 2582 ft | 120 kts | 87° |
| 2026-04-20 18:45 | 53.66175 | 7.70360 | 2580 ft | 120 kts | 86° |
| 2026-04-20 18:45 | 53.66179 | 7.71776 | 2584 ft | 120 kts | 86° |
| 2026-04-20 18:45 | 53.66182 | 7.73182 | 2589 ft | 121 kts | 87° |
| 2026-04-20 18:46 | 53.66186 | 7.74594 | 2581 ft | 122 kts | 87° |
| 2026-04-20 18:46 | 53.66189 | 7.76008 | 2581 ft | 119 kts | 87° |
| 2026-04-20 18:46 | 53.66194 | 7.77414 | 2581 ft | 120 kts | 87° |
| 2026-04-20 18:46 | 53.66194 | 7.78821 | 2580 ft | 121 kts | 87° |
| 2026-04-20 18:47 | 53.66199 | 7.80229 | 2582 ft | 120 kts | 86° |
| 2026-04-20 18:47 | 53.66201 | 7.81629 | 2586 ft | 122 kts | 86° |
| 2026-04-20 18:47 | 53.66207 | 7.83061 | 2590 ft | 122 kts | 86° |
| 2026-04-20 18:47 | 53.66209 | 7.84497 | 2597 ft | 122 kts | 87° |
| 2026-04-20 18:48 | 53.66208 | 7.85937 | 2594 ft | 123 kts | 87° |
| 2026-04-20 18:48 | 53.66210 | 7.87364 | 2601 ft | 121 kts | 87° |
| 2026-04-20 18:48 | 53.66209 | 7.88766 | 2591 ft | 120 kts | 86° |
| 2026-04-20 18:48 | 53.66213 | 7.90189 | 2593 ft | 121 kts | 86° |
| 2026-04-20 18:49 | 53.66225 | 7.91604 | 2608 ft | 120 kts | 87° |
| 2026-04-20 18:49 | 53.66222 | 7.93035 | 2599 ft | 122 kts | 87° |
| 2026-04-20 18:49 | 53.66221 | 7.94447 | 2607 ft | 123 kts | 88° |
| 2026-04-20 18:49 | 53.66220 | 7.95874 | 2601 ft | 120 kts | 86° |
| 2026-04-20 18:50 | 53.66223 | 7.97276 | 2602 ft | 119 kts | 87° |
| 2026-04-20 18:50 | 53.66225 | 7.98678 | 2597 ft | 120 kts | 87° |
| 2026-04-20 18:50 | 53.66225 | 8.00080 | 2608 ft | 121 kts | 87° |
| 2026-04-20 18:50 | 53.66225 | 8.01490 | 2610 ft | 120 kts | 88° |
| 2026-04-20 18:51 | 53.66223 | 8.02917 | 2608 ft | 122 kts | 88° |
| 2026-04-20 18:51 | 53.66225 | 8.04343 | 2601 ft | 120 kts | 87° |
| 2026-04-20 18:51 | 53.66225 | 8.05744 | 2599 ft | 119 kts | 87° |
| 2026-04-20 18:51 | 53.66226 | 8.07133 | 2595 ft | 118 kts | 87° |
| 2026-04-20 18:52 | 53.66225 | 8.08523 | 2596 ft | 119 kts | 87° |
| 2026-04-20 18:52 | 53.66225 | 8.09905 | 2600 ft | 119 kts | 87° |
| 2026-04-20 18:52 | 53.66224 | 8.11292 | 2602 ft | 118 kts | 87° |
| 2026-04-20 18:52 | 53.66224 | 8.12675 | 2599 ft | 118 kts | 88° |
| 2026-04-20 18:53 | 53.66223 | 8.14054 | 2598 ft | 117 kts | 88° |
| 2026-04-20 18:53 | 53.66222 | 8.15426 | 2602 ft | 117 kts | 88° |
| 2026-04-20 18:53 | 53.66221 | 8.16829 | 2478 ft | 123 kts | 88° |
| 2026-04-20 18:53 | 53.66219 | 8.18311 | 2298 ft | 128 kts | 87° |
| 2026-04-20 18:54 | 53.66217 | 8.19802 | 2127 ft | 129 kts | 86° |
| 2026-04-20 18:54 | 53.66214 | 8.21304 | 2017 ft | 124 kts | 86° |
| 2026-04-20 18:54 | 53.66212 | 8.22722 | 2010 ft | 118 kts | 85° |
| 2026-04-20 18:54 | 53.66210 | 8.24099 | 2009 ft | 117 kts | 85° |
| 2026-04-20 18:55 | 53.66209 | 8.25467 | 2010 ft | 116 kts | 86° |
| 2026-04-20 18:55 | 53.66207 | 8.26823 | 2009 ft | 114 kts | 86° |
| 2026-04-20 18:55 | 53.66204 | 8.28157 | 2007 ft | 113 kts | 85° |
| 2026-04-20 18:55 | 53.66201 | 8.29475 | 2005 ft | 114 kts | 86° |
| 2026-04-20 18:56 | 53.66199 | 8.30826 | 2010 ft | 116 kts | 86° |
| 2026-04-20 18:56 | 53.66196 | 8.32191 | 2016 ft | 116 kts | 86° |
| 2026-04-20 18:56 | 53.66193 | 8.33552 | 2012 ft | 116 kts | 86° |
| 2026-04-20 18:56 | 53.66190 | 8.34919 | 2011 ft | 116 kts | 86° |
| 2026-04-20 18:57 | 53.66186 | 8.36284 | 2016 ft | 116 kts | 86° |
| 2026-04-20 18:57 | 53.66183 | 8.37625 | 2013 ft | 115 kts | 86° |
| 2026-04-20 18:57 | 53.66179 | 8.38972 | 2013 ft | 115 kts | 86° |
| 2026-04-20 18:57 | 53.66175 | 8.40317 | 2014 ft | 114 kts | 86° |
| 2026-04-20 18:58 | 53.66171 | 8.41662 | 2020 ft | 115 kts | 86° |
| 2026-04-20 18:58 | 53.66167 | 8.43013 | 2018 ft | 115 kts | 86° |
| 2026-04-20 18:58 | 53.66163 | 8.44364 | 2019 ft | 116 kts | 86° |
| 2026-04-20 18:58 | 53.66159 | 8.45732 | 2018 ft | 117 kts | 87° |
| 2026-04-20 18:59 | 53.66154 | 8.47107 | 2016 ft | 117 kts | 87° |
| 2026-04-20 18:59 | 53.66149 | 8.48477 | 2022 ft | 116 kts | 87° |
| 2026-04-20 18:59 | 53.66145 | 8.49845 | 2024 ft | 117 kts | 86° |
| 2026-04-20 18:59 | 53.66141 | 8.51199 | 2026 ft | 117 kts | 87° |
| 2026-04-20 19:00 | 53.66133 | 8.52576 | 2024 ft | 116 kts | 87° |
| 2026-04-20 19:00 | 53.66128 | 8.53936 | 2021 ft | 115 kts | 86° |
| 2026-04-20 19:00 | 53.66122 | 8.55263 | 2029 ft | 115 kts | 86° |
| 2026-04-20 19:00 | 53.66116 | 8.56630 | 2029 ft | 117 kts | 87° |
| 2026-04-20 19:01 | 53.66108 | 8.58014 | 2029 ft | 118 kts | 86° |
| 2026-04-20 19:01 | 53.66104 | 8.59387 | 2019 ft | 116 kts | 86° |
| 2026-04-20 19:01 | 53.66098 | 8.60749 | 2015 ft | 117 kts | 86° |
| 2026-04-20 19:01 | 53.66092 | 8.62099 | 2016 ft | 116 kts | 86° |
| 2026-04-20 19:02 | 53.66085 | 8.63479 | 2027 ft | 118 kts | 88° |
| 2026-04-20 19:02 | 53.66077 | 8.64857 | 2021 ft | 115 kts | 86° |
| 2026-04-20 19:02 | 53.66075 | 8.66200 | 2024 ft | 114 kts | 86° |
| 2026-04-20 19:02 | 53.66069 | 8.67531 | 2015 ft | 114 kts | 87° |
| 2026-04-20 19:03 | 53.66058 | 8.68866 | 2018 ft | 114 kts | 86° |
| 2026-04-20 19:03 | 53.66052 | 8.70191 | 2017 ft | 112 kts | 86° |
| 2026-04-20 19:03 | 53.66047 | 8.71512 | 2021 ft | 113 kts | 87° |
| 2026-04-20 19:03 | 53.66036 | 8.72839 | 2034 ft | 115 kts | 87° |
| 2026-04-20 19:04 | 53.66030 | 8.74203 | 2018 ft | 117 kts | 87° |
| 2026-04-20 19:04 | 53.66021 | 8.75577 | 2019 ft | 116 kts | 88° |
| 2026-04-20 19:04 | 53.66012 | 8.76942 | 2027 ft | 115 kts | 87° |
| 2026-04-20 19:04 | 53.66004 | 8.78290 | 2025 ft | 115 kts | 89° |
| 2026-04-20 19:05 | 53.65994 | 8.79634 | 2029 ft | 116 kts | 88° |
| 2026-04-20 19:05 | 53.65993 | 8.80996 | 2017 ft | 116 kts | 87° |
| 2026-04-20 19:05 | 53.65979 | 8.82343 | 2018 ft | 114 kts | 87° |
| 2026-04-20 19:05 | 53.65969 | 8.83676 | 2028 ft | 114 kts | 88° |
| 2026-04-20 19:06 | 53.65956 | 8.85026 | 2023 ft | 115 kts | 87° |
| 2026-04-20 19:06 | 53.65953 | 8.86366 | 2018 ft | 114 kts | 87° |
| 2026-04-20 19:06 | 53.65946 | 8.87699 | 2016 ft | 113 kts | 88° |
| 2026-04-20 19:06 | 53.65937 | 8.89009 | 2021 ft | 114 kts | 88° |
| 2026-04-20 19:07 | 53.65927 | 8.90346 | 2009 ft | 114 kts | 88° |
| 2026-04-20 19:07 | 53.65918 | 8.91686 | 2011 ft | 115 kts | 88° |
| 2026-04-20 19:07 | 53.65907 | 8.93037 | 2018 ft | 116 kts | 88° |
| 2026-04-20 19:07 | 53.65899 | 8.94404 | 2006 ft | 117 kts | 88° |
| 2026-04-20 19:08 | 53.65887 | 8.95774 | 2010 ft | 116 kts | 88° |
| 2026-04-20 19:08 | 53.65864 | 8.98456 | 2001 ft | 111 kts | 87° |
| 2026-04-20 19:08 | 53.65857 | 8.99733 | 1994 ft | 107 kts | 88° |
| 2026-04-20 19:09 | 53.65846 | 9.00956 | 1995 ft | 104 kts | 88° |
| 2026-04-20 19:09 | 53.65837 | 9.02179 | 1998 ft | 104 kts | 87° |
| 2026-04-20 19:09 | 53.65826 | 9.03400 | 1995 ft | 104 kts | 87° |
| 2026-04-20 19:09 | 53.65816 | 9.04613 | 1997 ft | 103 kts | 88° |
| 2026-04-20 19:10 | 53.65806 | 9.05826 | 1993 ft | 103 kts | 88° |
| 2026-04-20 19:10 | 53.65796 | 9.07038 | 1993 ft | 104 kts | 88° |
| 2026-04-20 19:10 | 53.65786 | 9.08241 | 1996 ft | 104 kts | 88° |
| 2026-04-20 19:10 | 53.65776 | 9.09469 | 1998 ft | 105 kts | 88° |
| 2026-04-20 19:11 | 53.65763 | 9.10713 | 2001 ft | 107 kts | 88° |
| 2026-04-20 19:11 | 53.65753 | 9.11965 | 2009 ft | 107 kts | 88° |
| 2026-04-20 19:11 | 53.65742 | 9.13215 | 2006 ft | 106 kts | 88° |
| 2026-04-20 19:11 | 53.65731 | 9.14455 | 2003 ft | 105 kts | 88° |
| 2026-04-20 19:12 | 53.65721 | 9.15677 | 2002 ft | 104 kts | 88° |
| 2026-04-20 19:12 | 53.65710 | 9.16904 | 2009 ft | 105 kts | 88° |
| 2026-04-20 19:12 | 53.65692 | 9.18133 | 1999 ft | 106 kts | 89° |
| 2026-04-20 19:12 | 53.65685 | 9.19364 | 1992 ft | 104 kts | 87° |
| 2026-04-20 19:13 | 53.65676 | 9.20580 | 1991 ft | 103 kts | 88° |
| 2026-04-20 19:13 | 53.65663 | 9.21790 | 1993 ft | 104 kts | 88° |
| 2026-04-20 19:13 | 53.65650 | 9.23008 | 1996 ft | 103 kts | 88° |
| 2026-04-20 19:13 | 53.65639 | 9.24219 | 2003 ft | 104 kts | 88° |
| 2026-04-20 19:14 | 53.65628 | 9.25436 | 1993 ft | 103 kts | 88° |
| 2026-04-20 19:14 | 53.65616 | 9.26650 | 1995 ft | 104 kts | 88° |
| 2026-04-20 19:14 | 53.65605 | 9.27875 | 1998 ft | 105 kts | 87° |
| 2026-04-20 19:14 | 53.65443 | 9.29068 | 1998 ft | 111 kts | 111° |
| 2026-04-20 19:15 | 53.65056 | 9.30185 | 1998 ft | 109 kts | 111° |
| 2026-04-20 19:15 | 53.64687 | 9.31288 | 1996 ft | 105 kts | 111° |
| 2026-04-20 19:15 | 53.64329 | 9.32336 | 1999 ft | 102 kts | 111° |
| 2026-04-20 19:15 | 53.63978 | 9.33360 | 1996 ft | 100 kts | 110° |
| 2026-04-20 19:16 | 53.63632 | 9.34371 | 1992 ft | 100 kts | 110° |
| 2026-04-20 19:16 | 53.63281 | 9.35381 | 1985 ft | 99 kts | 111° |
| 2026-04-20 19:16 | 53.62931 | 9.36376 | 2003 ft | 99 kts | 110° |
| 2026-04-20 19:16 | 53.62576 | 9.37388 | 1994 ft | 101 kts | 111° |
| 2026-04-20 19:17 | 53.62218 | 9.38407 | 2001 ft | 100 kts | 111° |
| 2026-04-20 19:17 | 53.61861 | 9.39429 | 1999 ft | 101 kts | 110° |
| 2026-04-20 19:17 | 53.61506 | 9.40440 | 2005 ft | 102 kts | 111° |
| 2026-04-20 19:17 | 53.61152 | 9.41459 | 1994 ft | 97 kts | 109° |
| 2026-04-20 19:18 | 53.60890 | 9.42442 | 1990 ft | 89 kts | 104° |
| 2026-04-20 19:18 | 53.60651 | 9.43377 | 2001 ft | 85 kts | 105° |
| 2026-04-20 19:18 | 53.60415 | 9.44280 | 1991 ft | 82 kts | 105° |
| 2026-04-20 19:18 | 53.60187 | 9.45142 | 1998 ft | 80 kts | 104° |
| 2026-04-20 19:19 | 53.59959 | 9.46008 | 1995 ft | 77 kts | 104° |
| 2026-04-20 19:19 | 53.59746 | 9.46776 | 1986 ft | 69 kts | 104° |
| 2026-04-20 19:19 | 53.59566 | 9.47463 | 1996 ft | 59 kts | 89° |
| 2026-04-20 19:19 | 53.59654 | 9.48096 | 1991 ft | 54 kts | 77° |
| 2026-04-20 19:20 | 53.59735 | 9.48725 | 1994 ft | 55 kts | 78° |
| 2026-04-20 19:20 | 53.59816 | 9.49352 | 1989 ft | 53 kts | 78° |
| 2026-04-20 19:20 | 53.59894 | 9.49955 | 1995 ft | 52 kts | 77° |
| 2026-04-20 19:20 | 53.59973 | 9.50544 | 1993 ft | 51 kts | 77° |
| 2026-04-20 19:21 | 53.60045 | 9.51122 | 1994 ft | 50 kts | 77° |
| 2026-04-20 19:21 | 53.60115 | 9.51676 | 1996 ft | 49 kts | 77° |
| 2026-04-20 19:21 | 53.60146 | 9.52224 | 1987 ft | 49 kts | 100° |
| 2026-04-20 19:21 | 53.60018 | 9.52746 | 2000 ft | 50 kts | 101° |
| 2026-04-20 19:22 | 53.59851 | 9.53321 | 2026 ft | 60 kts | 102° |
| 2026-04-20 19:22 | 53.59661 | 9.54032 | 2022 ft | 72 kts | 103° |
| 2026-04-20 19:22 | 53.59462 | 9.54855 | 2010 ft | 78 kts | 102° |
| 2026-04-20 19:22 | 53.59330 | 9.55423 | 2022 ft | 80 kts | 102° |
| 2026-04-20 19:23 | 53.59058 | 9.56611 | 2004 ft | 82 kts | 102° |
| 2026-04-20 19:23 | 53.58851 | 9.57503 | 2010 ft | 83 kts | 102° |
| 2026-04-20 19:23 | 53.58712 | 9.58108 | 2008 ft | 82 kts | 102° |
| 2026-04-20 19:23 | 53.58508 | 9.58997 | 2005 ft | 82 kts | 102° |
| 2026-04-20 19:24 | 53.58308 | 9.59887 | 2013 ft | 78 kts | 102° |
| 2026-04-20 19:24 | 53.58122 | 9.60706 | 1990 ft | 72 kts | 101° |
| 2026-04-20 19:24 | 53.57950 | 9.61439 | 1992 ft | 63 kts | 101° |
| 2026-04-20 19:24 | 53.57785 | 9.62092 | 1989 ft | 59 kts | 102° |
| 2026-04-20 19:25 | 53.57621 | 9.62708 | 1991 ft | 56 kts | 101° |
| 2026-04-20 19:25 | 53.57466 | 9.63288 | 1988 ft | 52 kts | 101° |
| 2026-04-20 19:25 | 53.57314 | 9.63832 | 1996 ft | 54 kts | 102° |
| 2026-04-20 19:25 | 53.57148 | 9.64431 | 2011 ft | 59 kts | 102° |
| 2026-04-20 19:26 | 53.56969 | 9.65085 | 2015 ft | 63 kts | 102° |
| 2026-04-20 19:26 | 53.56790 | 9.65787 | 2009 ft | 66 kts | 98° |
| 2026-04-20 19:26 | 53.56635 | 9.66515 | 2018 ft | 68 kts | 99° |
| 2026-04-20 19:26 | 53.56473 | 9.67274 | 2008 ft | 69 kts | 99° |
| 2026-04-20 19:27 | 53.56339 | 9.68048 | 2013 ft | 68 kts | 93° |
| 2026-04-20 19:27 | 53.56236 | 9.68842 | 2015 ft | 71 kts | 94° |
| 2026-04-20 19:27 | 53.56130 | 9.69660 | 2014 ft | 72 kts | 93° |
| 2026-04-20 19:27 | 53.56067 | 9.70517 | 1935 ft | 75 kts | 83° |
| 2026-04-20 19:28 | 53.56045 | 9.71435 | 1818 ft | 81 kts | 86° |
| 2026-04-20 19:28 | 53.55992 | 9.72420 | 1655 ft | 89 kts | 90° |
| 2026-04-20 19:28 | 53.55938 | 9.73443 | 1549 ft | 88 kts | 88° |
| 2026-04-20 19:28 | 53.55907 | 9.74457 | 1454 ft | 88 kts | 85° |
| 2026-04-20 19:29 | 53.55919 | 9.75469 | 1404 ft | 84 kts | 91° |
| 2026-04-20 19:29 | 53.55825 | 9.76368 | 1494 ft | 74 kts | 92° |
| 2026-04-20 19:29 | 53.55737 | 9.77242 | 1500 ft | 79 kts | 92° |
| 2026-04-20 19:29 | 53.55645 | 9.78188 | 1507 ft | 84 kts | 93° |
| 2026-04-20 19:30 | 53.55552 | 9.79162 | 1514 ft | 85 kts | 91° |
| 2026-04-20 19:30 | 53.55735 | 9.80066 | 1516 ft | 84 kts | 62° |
| 2026-04-20 19:30 | 53.56017 | 9.80964 | 1516 ft | 87 kts | 64° |
| 2026-04-20 19:30 | 53.56300 | 9.81903 | 1516 ft | 93 kts | 64° |
| 2026-04-20 19:31 | 53.56591 | 9.82888 | 1516 ft | 95 kts | 64° |
| 2026-04-20 19:31 | 53.56890 | 9.83881 | 1514 ft | 96 kts | 64° |
| 2026-04-20 19:31 | 53.57205 | 9.84885 | 1478 ft | 100 kts | 61° |
| 2026-04-20 19:31 | 53.57578 | 9.85924 | 1341 ft | 110 kts | 56° |
| 2026-04-20 19:32 | 53.57979 | 9.87028 | 1289 ft | 109 kts | 62° |
| 2026-04-20 19:32 | 53.58346 | 9.88177 | 1170 ft | 113 kts | 64° |
| 2026-04-20 19:32 | 53.58710 | 9.89341 | 982 ft | 109 kts | 61° |
| 2026-04-20 19:32 | 53.59099 | 9.90397 | 855 ft | 105 kts | 57° |
| 2026-04-20 19:33 | 53.59538 | 9.91412 | 717 ft | 108 kts | 52° |
| 2026-04-20 19:33 | 53.60006 | 9.92390 | 641 ft | 107 kts | 51° |
| 2026-04-20 19:33 | 53.60468 | 9.93420 | 540 ft | 114 kts | 54° |
| 2026-04-20 19:33 | 53.60948 | 9.94511 | 402 ft | 121 kts | 52° |
| 2026-04-20 19:34 | 53.61478 | 9.95659 | 269 ft | 125 kts | 51° |
| 2026-04-20 19:34 | 53.62019 | 9.96756 | 64 ft | 116 kts | 50° |
| 2026-04-20 19:34 | 53.62469 | 9.97669 | 35 ft | 87 kts | 49° |
| 2026-04-20 19:34 | 53.62755 | 9.98264 | 37 ft | 35 kts | 70° |
| 2026-04-20 19:35 | 53.62687 | 9.98434 | 41 ft | 3 kts | 146° |
| 2026-04-20 19:35 | 53.62687 | 9.98435 | 41 ft | 2 kts | 142° |
| 2026-04-20 19:35 | 53.62684 | 9.98541 | 41 ft | 16 kts | 54° |
| 2026-04-20 19:35 | 53.62760 | 9.98692 | 41 ft | 18 kts | 52° |
| 2026-04-20 19:36 | 53.62837 | 9.98845 | 41 ft | 5 kts | 51° |
| 2026-04-20 19:36 | 53.62842 | 9.98882 | 41 ft | 0 kts | 98° |
| 2026-04-20 19:37 | 53.62808 | 9.98953 | 41 ft | 23 kts | 153° |
| 2026-04-20 19:37 | 53.62637 | 9.99099 | 41 ft | 29 kts | 151° |
| 2026-04-20 19:38 | 53.62586 | 9.99289 | 41 ft | 11 kts | 85° |
| 2026-04-20 19:38 | 53.62538 | 9.99346 | 41 ft | 9 kts | 191° |
| 2026-04-20 19:38 | 53.62527 | 9.99335 | 41 ft | 0 kts | 234° |